This is the latest recevied weather packets stored in our database for station/object KE6LRO. If no packets are shown the sender has not sent any weather packets the latest 10 day(s).
| Time | Temp. | Humidity | Pressure | Rain* | Wind** | Luminosity | Snow |
|---|---|---|---|---|---|---|---|
| 1777821849 | 10.56° C | 70% | 1020.5 hPa | 0 mm | - | 391 W/m² | - |
| 1777821546 | 10.56° C | 70% | 1020.4 hPa | 0 mm | - | 371 W/m² | - |
| 1777821244 | 9.44° C | 74% | 1020.5 hPa | 0 mm | - | 335 W/m² | - |
| 1777820940 | 8.89° C | 80% | 1020.4 hPa | 0 mm | - | 310 W/m² | - |
| 1777820637 | 9.44° C | 74% | 1020.5 hPa | 0 mm | - | 276 W/m² | - |
| 1777820333 | 8.89° C | 74% | 1020.4 hPa | 0 mm | - | 241 W/m² | - |
| 1777820031 | 7.78° C | 76% | 1020.5 hPa | 0 mm | - | 216 W/m² | - |
| 1777819728 | 7.22° C | 82% | 1020.7 hPa | 0 mm | - | 193 W/m² | - |
| 1777819426 | 6.67° C | 88% | 1020.7 hPa | 0 mm | - | 174 W/m² | - |
| 1777819123 | 6.67° C | 88% | 1020.8 hPa | 0 mm | - | 157 W/m² | - |
| 1777818820 | 5° C | 93% | 1020.8 hPa | 0 mm | - | 142 W/m² | - |
| 1777818516 | 3.89° C | 96% | 1021.1 hPa | 0 mm | - | 130 W/m² | - |
| 1777818213 | 2.78° C | 99% | 1021.1 hPa | 0 mm | - | 119 W/m² | - |
| 1777817909 | 1.67° C | 99% | 1021.2 hPa | 0 mm | - | 110 W/m² | - |
| 1777817607 | 1.67° C | 99% | 1021.2 hPa | 0 mm | - | 49 W/m² | - |
| 1777817304 | 1.11° C | 99% | 1021.1 hPa | 0 mm | - | 71 W/m² | - |
| 1777817001 | 0.56° C | 99% | 1021.2 hPa | 0 mm | - | 60 W/m² | - |
| 1777816697 | 0° C | 99% | 1021.1 hPa | 0 mm | - | 35 W/m² | - |
| 1777816394 | 0° C | 99% | 1021.2 hPa | 0 mm | - | 33 W/m² | - |
| 1777816092 | 0° C | 99% | 1020.9 hPa | 0 mm | - | 31 W/m² | - |
| 1777815790 | 0° C | 99% | 1021.2 hPa | 0 mm | - | 30 W/m² | - |
| 1777815487 | 0° C | 99% | 1021.1 hPa | 0 mm | - | 29 W/m² | - |
| 1777815184 | -0.56° C | 99% | 1020.9 hPa | 0 mm | - | 27 W/m² | - |
| 1777814880 | -0.56° C | 99% | 1020.9 hPa | 0 mm | - | 26 W/m² | - |
| 1777814576 | -0.56° C | 99% | 1021.1 hPa | 0 mm | - | 25 W/m² | - |
* Rain latest hour (hover to see other rain measurements)
** Current wind speed in m/s (hover to see current wind gust speed)